Time;durP1;ratioP1;P1;durP2;ratioP2;P2;SDS_P1;SDS_P2;PMS_P1;PMS_P2;Temp;Humidity;BMP_temperature;BMP_pressure;BME280_temperature;BME280_humidity;BME280_pressure;Samples;Min_cycle;Max_cycle;Signal;HPM_P1;HPM_P2
2023/05/03 00:01:09;;;;;;;;;;;;;;;20.04;58.33;101522.56;7401925;19;1290;-50
2023/05/03 00:03:38;;;;;;;;;;;;;;;20.02;58.34;101508.44;7402799;19;1222;-51
2023/05/03 00:06:15;;;;;;;;;;;;;;;20.01;58.49;101507.56;7403292;19;1133;-53
2023/05/03 00:08:44;;;;;;;;;;;;;;;20.02;58.48;101516.47;7400116;19;1485;-51
2023/05/03 00:11:12;;;;;;;;;;;;;;;20.02;58.51;101520.00;7401171;19;1802;-51
2023/05/03 00:13:41;;;;;;;;;;;;;;;19.99;58.56;101522.94;7401922;19;1429;-51
2023/05/03 00:16:09;;;;;;;;;;;;;;;20.02;58.28;101533.44;7401049;19;1496;-51
2023/05/03 00:18:37;;;;;;;;;;;;;;;19.98;58.42;101515.88;7401287;19;1862;-51
2023/05/03 00:21:06;;;;;;;;;;;;;;;20.01;58.51;101504.03;7402744;19;1760;-50
2023/05/03 00:23:37;;;;;;;;;;;;;;;19.95;58.65;101509.88;7401028;19;1259;-51
2023/05/03 00:26:05;;;;;;;;;;;;;;;19.94;58.46;101508.19;7400670;19;1314;-51
2023/05/03 00:28:33;;;;;;;;;;;;;;;19.99;58.51;101522.09;7400344;19;1191;-50
2023/05/03 00:31:11;;;;;;;;;;;;;;;20.00;58.24;101515.75;7398926;19;1531;-51
2023/05/03 00:33:40;;;;;;;;;;;;;;;19.97;58.28;101492.66;7401446;19;1485;-51
2023/05/03 00:36:08;;;;;;;;;;;;;;;19.98;58.25;101504.28;7400022;19;1962;-51
2023/05/03 00:38:39;;;;;;;;;;;;;;;19.94;58.36;101517.09;7399924;19;1871;-51
2023/05/03 00:41:08;;;;;;;;;;;;;;;20.00;58.31;101513.06;7401989;19;1274;-51
2023/05/03 00:43:36;;;;;;;;;;;;;;;19.94;58.46;101497.47;7399941;19;1497;-51
2023/05/03 00:46:07;;;;;;;;;;;;;;;19.94;58.59;101508.19;7400598;19;1239;-51
2023/05/03 00:48:35;;;;;;;;;;;;;;;19.97;58.26;101513.28;7400058;19;1152;-51
2023/05/03 00:51:04;;;;;;;;;;;;;;;19.94;58.24;101497.47;7400790;19;1270;-52
2023/05/03 00:53:33;;;;;;;;;;;;;;;19.93;58.42;101504.63;7400268;19;1211;-51
2023/05/03 00:56:05;;;;;;;;;;;;;;;19.93;58.40;101490.38;7400866;19;1508;-51
2023/05/03 00:58:38;;;;;;;;;;;;;;;19.90;58.58;101496.84;7398610;19;1863;-51
2023/05/03 01:01:07;;;;;;;;;;;;;;;19.84;58.59;101487.44;7398353;19;2001;-51
2023/05/03 01:03:36;;;;;;;;;;;;;;;19.85;58.67;101473.03;7399803;19;1470;-51
2023/05/03 01:06:10;;;;;;;;;;;;;;;19.85;58.63;101489.13;7400149;19;1230;-51
2023/05/03 01:08:40;;;;;;;;;;;;;;;19.83;58.67;101475.00;7398178;19;1208;-51
2023/05/03 01:11:16;;;;;;;;;;;;;;;19.85;58.48;101482.94;7399538;19;1361;-50
2023/05/03 01:13:50;;;;;;;;;;;;;;;19.87;58.63;101491.72;7398708;19;1437;-50
2023/05/03 01:16:22;;;;;;;;;;;;;;;19.80;58.58;101479.78;7399111;19;1523;-51
2023/05/03 01:18:52;;;;;;;;;;;;;;;19.78;58.59;101477.22;7398824;19;1884;-51
2023/05/03 01:21:22;;;;;;;;;;;;;;;19.76;58.75;101462.22;7400649;19;1195;-51
2023/05/03 01:23:56;;;;;;;;;;;;;;;19.78;58.64;101474.53;7400204;19;1293;-50
2023/05/03 01:26:28;;;;;;;;;;;;;;;19.83;58.41;101466.94;7399572;19;1548;-50
2023/05/03 01:28:57;;;;;;;;;;;;;;;19.81;58.36;101460.84;7398123;19;1523;-51
2023/05/03 01:31:34;;;;;;;;;;;;;;;19.84;58.37;101460.59;7398291;19;1223;-51
2023/05/03 01:34:12;;;;;;;;;;;;;;;19.82;58.53;101462.56;7399141;19;1266;-51
2023/05/03 01:36:42;;;;;;;;;;;;;;;19.88;58.22;101471.97;7398641;19;1323;-51
2023/05/03 01:39:12;;;;;;;;;;;;;;;19.86;58.43;101461.34;7398393;19;1851;-51
2023/05/03 01:41:43;;;;;;;;;;;;;;;19.88;58.41;101476.47;7398275;19;1619;-51
2023/05/03 01:44:13;;;;;;;;;;;;;;;19.59;60.12;101479.63;7398192;19;1560;-50
2023/05/03 01:46:45;;;;;;;;;;;;;;;19.87;59.56;101467.56;7397978;19;1614;-51
2023/05/03 01:49:13;;;;;;;;;;;;;;;20.33;58.29;101466.47;7398586;19;1619;-51
2023/05/03 01:51:41;;;;;;;;;;;;;;;20.53;57.69;101455.88;7398581;19;1473;-51
2023/05/03 01:54:10;;;;;;;;;;;;;;;20.44;57.97;101454.84;7398911;19;1477;-51
2023/05/03 01:56:38;;;;;;;;;;;;;;;20.44;58.13;101460.22;7398552;19;1554;-51
2023/05/03 01:59:09;;;;;;;;;;;;;;;20.54;58.09;101474.56;7397975;19;1861;-51
2023/05/03 02:01:38;;;;;;;;;;;;;;;20.68;57.82;101448.41;7395851;19;1191;-51
2023/05/03 02:04:06;;;;;;;;;;;;;;;20.81;57.51;101449.06;7398707;19;1441;-52
2023/05/03 02:06:34;;;;;;;;;;;;;;;20.82;57.27;101450.78;7399187;19;1172;-51
2023/05/03 02:09:03;;;;;;;;;;;;;;;20.84;57.19;101435.38;7397405;19;1551;-51
2023/05/03 02:11:31;;;;;;;;;;;;;;;20.97;56.97;101433.34;7395517;19;1697;-51
2023/05/03 02:13:59;;;;;;;;;;;;;;;21.03;56.81;101437.34;7397849;19;1217;-51
2023/05/03 02:16:30;;;;;;;;;;;;;;;20.93;57.25;101431.91;7398511;19;1290;-51
2023/05/03 02:19:00;;;;;;;;;;;;;;;20.74;57.53;101435.31;7397052;19;1839;-50
2023/05/03 02:21:28;;;;;;;;;;;;;;;20.69;57.86;101440.22;7397229;19;1452;-52
2023/05/03 02:23:56;;;;;;;;;;;;;;;20.73;57.96;101446.19;7397890;19;1290;-51
2023/05/03 02:26:25;;;;;;;;;;;;;;;20.86;57.64;101442.31;7398097;19;1789;-50
2023/05/03 02:28:54;;;;;;;;;;;;;;;20.98;56.95;101435.03;7396670;19;1484;-50
2023/05/03 02:31:23;;;;;;;;;;;;;;;21.02;57.06;101452.59;7397469;19;1551;-50
2023/05/03 02:33:54;;;;;;;;;;;;;;;20.98;57.28;101440.41;7396456;19;1576;-51
2023/05/03 02:36:22;;;;;;;;;;;;;;;20.99;57.33;101442.13;7397112;19;1828;-51
2023/05/03 02:38:50;;;;;;;;;;;;;;;21.02;57.01;101441.00;7396427;19;1874;-51
2023/05/03 02:41:18;;;;;;;;;;;;;;;20.99;57.13;101439.44;7397071;19;1492;-50
2023/05/03 02:43:47;;;;;;;;;;;;;;;21.01;57.10;101433.94;7395865;19;1172;-50
2023/05/03 02:46:15;;;;;;;;;;;;;;;21.05;57.05;101449.66;7396469;19;1175;-50
2023/05/03 02:48:43;;;;;;;;;;;;;;;21.09;56.87;101441.31;7396374;19;1524;-50
2023/05/03 02:51:14;;;;;;;;;;;;;;;21.06;57.01;101431.69;7396456;19;1499;-50
2023/05/03 02:53:42;;;;;;;;;;;;;;;21.09;57.08;101436.81;7396456;19;1469;-50
2023/05/03 02:56:11;;;;;;;;;;;;;;;21.11;56.92;101444.72;7396134;19;1234;-50
2023/05/03 02:58:39;;;;;;;;;;;;;;;21.18;56.79;101440.53;7395831;19;1860;-50
2023/05/03 03:01:08;;;;;;;;;;;;;;;21.14;56.89;101441.78;7396365;19;1281;-50
2023/05/03 03:03:36;;;;;;;;;;;;;;;20.96;57.31;101430.78;7397566;19;1226;-51
2023/05/03 03:06:04;;;;;;;;;;;;;;;20.84;57.70;101443.44;7396880;19;1946;-51
2023/05/03 03:08:35;;;;;;;;;;;;;;;20.86;57.66;101446.84;7395863;19;1631;-51
2023/05/03 03:11:04;;;;;;;;;;;;;;;20.98;57.61;101442.25;7396670;19;1475;-51
2023/05/03 03:13:32;;;;;;;;;;;;;;;21.16;57.18;101437.97;7396528;19;1490;-53
2023/05/03 03:16:00;;;;;;;;;;;;;;;21.14;56.94;101444.47;7397312;19;1073;-53
2023/05/03 03:18:29;;;;;;;;;;;;;;;21.15;56.94;101456.91;7395728;19;1116;-50
2023/05/03 03:20:57;;;;;;;;;;;;;;;21.20;57.01;101465.44;7394523;19;1921;-50
2023/05/03 03:23:25;;;;;;;;;;;;;;;21.12;57.17;101466.09;7395179;19;1294;-51
2023/05/03 03:25:56;;;;;;;;;;;;;;;21.14;57.02;101455.22;7396041;19;1492;-50
2023/05/03 03:28:25;;;;;;;;;;;;;;;21.12;57.17;101467.97;7395706;19;1215;-51
2023/05/03 03:30:53;;;;;;;;;;;;;;;21.03;57.32;101457.00;7395489;19;1780;-50
2023/05/03 03:33:21;;;;;;;;;;;;;;;21.08;57.14;101466.50;7395373;19;1549;-53
2023/05/03 03:35:50;;;;;;;;;;;;;;;21.12;57.11;101486.78;7395224;19;1602;-53
2023/05/03 03:38:18;;;;;;;;;;;;;;;21.06;57.31;101469.34;7396485;19;1345;-51
2023/05/03 03:40:46;;;;;;;;;;;;;;;21.08;57.20;101461.97;7394707;19;1840;-53
2023/05/03 03:43:17;;;;;;;;;;;;;;;21.09;57.32;101468.22;7395066;19;1959;-51
2023/05/03 03:45:46;;;;;;;;;;;;;;;21.08;57.15;101474.59;7395676;19;1309;-52
2023/05/03 03:48:14;;;;;;;;;;;;;;;21.12;57.14;101467.97;7395616;19;1082;-52
2023/05/03 03:50:42;;;;;;;;;;;;;;;21.16;57.18;101469.41;7396124;19;1382;-53
2023/05/03 03:53:11;;;;;;;;;;;;;;;21.16;57.15;101469.41;7396514;19;1152;-52
2023/05/03 03:55:40;;;;;;;;;;;;;;;21.20;57.02;101477.06;7393354;19;1504;-51
2023/05/03 03:58:08;;;;;;;;;;;;;;;21.21;56.84;101469.88;7392007;19;1422;-51
2023/05/03 04:00:39;;;;;;;;;;;;;;;21.06;57.42;101463.94;7390694;19;1852;-52
2023/05/03 04:03:08;;;;;;;;;;;;;;;21.01;57.42;101469.75;7394692;19;1224;-51
2023/05/03 04:05:36;;;;;;;;;;;;;;;21.08;57.10;101469.22;7394279;19;1175;-51
2023/05/03 04:08:05;;;;;;;;;;;;;;;20.91;57.43;101466.13;7390253;19;2043;-51
2023/05/03 04:10:33;;;;;;;;;;;;;;;20.90;57.47;101472.47;7393996;19;1558;-50
2023/05/03 04:13:01;;;;;;;;;;;;;;;20.74;58.16;101474.78;7393321;19;1392;-51
2023/05/03 04:15:29;;;;;;;;;;;;;;;20.54;58.62;101457.63;7390737;19;1555;-51
2023/05/03 04:18:00;;;;;;;;;;;;;;;20.49;58.75;101476.78;7392450;19;1503;-51
2023/05/03 04:20:29;;;;;;;;;;;;;;;20.38;58.99;101466.09;7392402;19;1878;-51
2023/05/03 04:22:57;;;;;;;;;;;;;;;20.31;59.13;101470.25;7393454;19;1493;-50
2023/05/03 04:25:25;;;;;;;;;;;;;;;20.20;59.45;101490.81;7392744;19;1484;-51
2023/05/03 04:27:54;;;;;;;;;;;;;;;20.14;59.51;101490.47;7392519;19;1210;-50
2023/05/03 04:30:23;;;;;;;;;;;;;;;20.18;59.12;101490.09;7390299;19;1194;-51
2023/05/03 04:32:52;;;;;;;;;;;;;;;19.96;59.99;101490.13;7390391;19;1207;-51
2023/05/03 04:35:23;;;;;;;;;;;;;;;20.02;59.57;101498.53;7396323;19;1544;-51
2023/05/03 04:37:52;;;;;;;;;;;;;;;20.04;59.73;101503.78;7401733;19;1304;-51
2023/05/03 04:40:20;;;;;;;;;;;;;;;20.20;59.23;101509.59;6880446;19;10000453;-52
2023/05/03 04:42:48;;;;;;;;;;;;;;;20.18;59.99;101490.09;7393127;19;1274;-51
2023/05/03 04:45:17;;;;;;;;;;;;;;;20.21;59.68;101495.22;7394674;19;1122;-51
2023/05/03 04:47:46;;;;;;;;;;;;;;;20.27;59.90;101483.09;7394813;19;1778;-50
2023/05/03 04:50:15;;;;;;;;;;;;;;;20.08;60.40;101496.34;7391988;19;1519;-51
2023/05/03 04:52:46;;;;;;;;;;;;;;;20.08;59.76;101489.13;7387351;19;1152;-50
2023/05/03 04:55:15;;;;;;;;;;;;;;;19.94;60.47;101487.56;7394899;19;1442;-50
2023/05/03 04:57:44;;;;;;;;;;;;;;;19.82;60.36;101478.66;7395263;19;1274;-51
2023/05/03 05:00:13;;;;;;;;;;;;;;;19.95;60.06;101483.03;7395778;19;1850;-51
2023/05/03 05:02:41;;;;;;;;;;;;;;;19.76;58.54;101495.28;7398863;19;1460;-51
2023/05/03 05:05:10;;;;;;;;;;;;;;;19.66;57.09;101500.47;7395691;19;1219;-50
2023/05/03 05:07:39;;;;;;;;;;;;;;;19.56;56.84;101485.25;7396065;19;1398;-50
2023/05/03 05:10:11;;;;;;;;;;;;;;;19.52;56.23;101505.22;7399385;19;1184;-51
2023/05/03 05:12:39;;;;;;;;;;;;;;;19.54;56.87;101508.66;7400266;19;1078;-51
2023/05/03 05:15:08;;;;;;;;;;;;;;;19.47;55.12;101509.13;7398899;19;1588;-51
2023/05/03 05:17:37;;;;;;;;;;;;;;;19.51;54.18;101506.22;7399212;19;1543;-50
2023/05/03 05:20:07;;;;;;;;;;;;;;;19.75;57.26;101516.84;7393889;19;1850;-51
2023/05/03 05:22:35;;;;;;;;;;;;;;;19.97;56.23;101511.47;7396355;19;1286;-50
2023/05/03 05:25:03;;;;;;;;;;;;;;;19.94;56.12;101521.63;7398712;19;1496;-50
2023/05/03 05:27:34;;;;;;;;;;;;;;;19.76;55.41;101521.25;7398348;19;1226;-51
2023/05/03 05:30:03;;;;;;;;;;;;;;;19.58;54.57;101508.28;7399076;19;1552;-51
2023/05/03 05:32:31;;;;;;;;;;;;;;;19.54;54.50;101522.91;7398749;19;1183;-51
2023/05/03 05:34:59;;;;;;;;;;;;;;;19.43;54.34;101509.47;7399062;19;1231;-51
2023/05/03 05:37:28;;;;;;;;;;;;;;;19.44;54.15;101514.75;7395197;19;1626;-51
2023/05/03 05:39:57;;;;;;;;;;;;;;;19.38;53.23;101519.75;7395058;19;1851;-51
2023/05/03 05:42:25;;;;;;;;;;;;;;;19.34;53.49;101519.13;7395197;19;1492;-50
2023/05/03 05:44:56;;;;;;;;;;;;;;;19.34;52.92;101521.81;7394937;19;1587;-50
2023/05/03 05:47:24;;;;;;;;;;;;;;;19.32;53.90;101521.06;7393535;19;1559;-51
2023/05/03 05:49:53;;;;;;;;;;;;;;;19.29;52.88;101523.97;7394900;19;1553;-51
2023/05/03 05:52:21;;;;;;;;;;;;;;;19.19;51.46;101526.50;7397339;19;1571;-51
2023/05/03 05:54:49;;;;;;;;;;;;;;;19.72;53.67;101520.66;7398602;19;1249;-51
2023/05/03 05:57:17;;;;;;;;;;;;;;;19.93;52.46;101533.31;7398775;19;1555;-50
2023/05/03 05:59:46;;;;;;;;;;;;;;;19.88;52.47;101540.91;7397718;19;1871;-50
2023/05/03 06:02:21;;;;;;;;;;;;;;;19.70;52.80;101521.72;7396891;19;1266;-51
2023/05/03 06:04:50;;;;;;;;;;;;;;;19.48;51.56;101531.44;7399200;19;1482;-51
2023/05/03 06:07:18;;;;;;;;;;;;;;;19.38;52.63;101522.41;7397802;19;1238;-50
2023/05/03 06:09:47;;;;;;;;;;;;;;;19.46;51.36;101546.81;7397749;19;1174;-50
2023/05/03 06:12:15;;;;;;;;;;;;;;;19.44;51.92;101538.88;7397473;19;1551;-50
2023/05/03 06:14:43;;;;;;;;;;;;;;;19.39;52.05;101541.06;7397045;19;1524;-50
2023/05/03 06:17:11;;;;;;;;;;;;;;;19.32;52.35;101539.84;7397236;19;1479;-50
2023/05/03 06:19:42;;;;;;;;;;;;;;;19.26;52.25;101540.31;7397120;19;1851;-50
2023/05/03 06:22:11;;;;;;;;;;;;;;;19.28;52.91;101538.38;7397848;19;1548;-49
2023/05/03 06:24:39;;;;;;;;;;;;;;;19.48;52.96;101545.72;7398434;19;1622;-50
2023/05/03 06:27:07;;;;;;;;;;;;;;;19.90;52.25;101538.94;7394669;19;1548;-50
2023/05/03 06:29:35;;;;;;;;;;;;;;;19.86;52.00;101543.69;7395779;19;1298;-49
2023/05/03 06:32:04;;;;;;;;;;;;;;;19.86;52.68;101539.19;7396436;19;1328;-49
2023/05/03 06:34:32;;;;;;;;;;;;;;;20.00;51.73;101537.22;7390792;19;1855;-49
2023/05/03 06:37:03;;;;;;;;;;;;;;;19.91;52.47;101546.00;7393979;19;1186;-50
2023/05/03 06:39:31;;;;;;;;;;;;;;;19.98;52.15;101537.34;7398089;19;1121;-50
2023/05/03 06:42:01;;;;;;;;;;;;;;;19.82;52.86;101550.28;7395325;19;1867;-50
2023/05/03 06:44:29;;;;;;;;;;;;;;;19.95;52.89;101550.16;7396963;19;1383;-50
2023/05/03 06:46:57;;;;;;;;;;;;;;;19.90;53.74;101555.91;7395973;19;1885;-50
2023/05/03 06:49:26;;;;;;;;;;;;;;;19.91;55.05;101544.16;7397471;19;1380;-52
2023/05/03 06:51:54;;;;;;;;;;;;;;;19.92;55.20;101563.84;7395438;19;1848;-50
2023/05/03 06:54:25;;;;;;;;;;;;;;;19.81;56.01;101562.84;7394702;19;1845;-50
2023/05/03 06:56:53;;;;;;;;;;;;;;;19.90;55.64;101563.09;7396269;19;1958;-50
2023/05/03 06:59:22;;;;;;;;;;;;;;;20.10;56.13;101577.63;7394799;19;1447;-50
2023/05/03 07:01:50;;;;;;;;;;;;;;;20.28;56.02;101576.13;7393979;19;1851;-51
2023/05/03 07:04:18;;;;;;;;;;;;;;;20.00;58.19;101591.75;7394995;19;1682;-50
2023/05/03 07:06:46;;;;;;;;;;;;;;;19.90;57.49;101600.69;7396434;19;1404;-50
2023/05/03 07:09:15;;;;;;;;;;;;;;;19.90;58.31;101604.22;7394258;19;1872;-51
2023/05/03 07:11:49;;;;;;;;;;;;;;;19.80;58.76;101592.50;7395231;19;1507;-51
2023/05/03 07:14:18;;;;;;;;;;;;;;;19.70;57.94;101600.38;7392278;19;1345;-50
2023/05/03 07:16:46;;;;;;;;;;;;;;;19.92;56.76;101596.91;7394982;19;1422;-50
2023/05/03 07:19:14;;;;;;;;;;;;;;;20.13;56.21;101585.41;7391351;19;1214;-51
2023/05/03 07:21:42;;;;;;;;;;;;;;;20.20;56.58;101600.06;7390769;19;1855;-50
2023/05/03 07:24:11;;;;;;;;;;;;;;;19.95;57.99;101587.72;7392642;19;1253;-51
2023/05/03 07:26:40;;;;;;;;;;;;;;;19.89;57.94;101582.84;7389639;19;1259;-50
2023/05/03 07:29:11;;;;;;;;;;;;;;;20.29;57.34;101593.09;7391243;19;1143;-51
2023/05/03 07:31:39;;;;;;;;;;;;;;;19.98;58.82;101592.88;7390916;19;1506;-50
2023/05/03 07:34:07;;;;;;;;;;;;;;;19.86;59.59;101602.75;7391424;19;1202;-50
2023/05/03 07:36:35;;;;;;;;;;;;;;;19.91;60.04;101581.75;7392594;19;1115;-50
2023/05/03 07:39:04;;;;;;;;;;;;;;;19.98;59.87;101584.81;7391504;19;1604;-50
2023/05/03 07:41:32;;;;;;;;;;;;;;;20.12;59.27;101589.09;7390436;19;1863;-50
2023/05/03 07:44:00;;;;;;;;;;;;;;;20.14;59.72;101574.56;7391975;19;1402;-50
2023/05/03 07:46:33;;;;;;;;;;;;;;;20.15;59.98;101592.34;7395216;19;1472;-53
2023/05/03 07:49:02;;;;;;;;;;;;;;;20.10;60.06;101581.16;7395107;19;1545;-50
2023/05/03 07:51:31;;;;;;;;;;;;;;;20.12;60.26;101608.72;7395210;19;1297;-50
2023/05/03 07:54:00;;;;;;;;;;;;;;;20.09;60.24;101603.59;7395821;19;1482;-50
2023/05/03 07:56:28;;;;;;;;;;;;;;;20.05;60.77;101597.63;7395845;19;1333;-50
2023/05/03 07:58:57;;;;;;;;;;;;;;;20.03;60.72;101587.97;7395479;19;1548;-50
2023/05/03 08:01:25;;;;;;;;;;;;;;;20.00;60.84;101583.72;7393808;19;1844;-50
2023/05/03 08:03:57;;;;;;;;;;;;;;;20.02;60.77;101581.75;7395456;19;1266;-50
2023/05/03 08:06:27;;;;;;;;;;;;;;;20.03;60.93;101572.75;7395475;19;1262;-50
2023/05/03 08:08:55;;;;;;;;;;;;;;;20.04;60.64;101573.59;7393967;19;1251;-50
2023/05/03 08:11:23;;;;;;;;;;;;;;;20.10;60.81;101573.09;7403069;19;1450;-50
2023/05/03 08:13:51;;;;;;;;;;;;;;;20.20;60.52;101571.38;7402104;19;1551;-50
2023/05/03 08:16:20;;;;;;;;;;;;;;;20.26;60.40;101567.34;7403359;19;1500;-50
2023/05/03 08:18:48;;;;;;;;;;;;;;;20.21;60.50;101554.28;7402822;19;1311;-50
2023/05/03 08:21:20;;;;;;;;;;;;;;;20.09;60.81;101559.78;7401636;19;1943;-51
2023/05/03 08:23:49;;;;;;;;;;;;;;;19.99;61.33;101559.66;7402401;19;1552;-51
2023/05/03 08:26:18;;;;;;;;;;;;;;;19.91;61.71;101551.38;7403010;19;1606;-51
2023/05/03 08:28:46;;;;;;;;;;;;;;;20.05;61.13;101560.06;7403385;19;1033;-51
2023/05/03 08:31:16;;;;;;;;;;;;;;;20.41;59.77;101543.72;7401366;19;1357;-51
2023/05/03 08:33:44;;;;;;;;;;;;;;;20.56;59.42;101555.91;7401185;19;1477;-51
2023/05/03 08:36:13;;;;;;;;;;;;;;;20.48;59.68;101552.16;7402821;19;1238;-51
2023/05/03 08:38:43;;;;;;;;;;;;;;;20.50;59.55;101564.47;7401688;19;1282;-50
2023/05/03 08:41:16;;;;;;;;;;;;;;;20.47;59.57;101551.28;7400991;19;1850;-50
2023/05/03 08:43:46;;;;;;;;;;;;;;;20.51;59.74;101558.13;7401713;19;1595;-50
2023/05/03 08:46:15;;;;;;;;;;;;;;;20.42;59.78;101545.47;7402475;19;975;-51
2023/05/03 08:48:44;;;;;;;;;;;;;;;20.37;60.17;101559.28;7402398;19;1946;-50
2023/05/03 08:51:13;;;;;;;;;;;;;;;20.12;61.00;101538.06;7401893;19;1955;-50
2023/05/03 08:53:44;;;;;;;;;;;;;;;19.88;61.54;101535.53;7401769;19;1731;-50
2023/05/03 08:56:13;;;;;;;;;;;;;;;20.06;60.98;101529.53;7401933;19;1834;-51
2023/05/03 08:58:42;;;;;;;;;;;;;;;20.05;61.17;101526.94;7401407;19;1790;-50
2023/05/03 09:01:13;;;;;;;;;;;;;;;20.03;60.96;101531.59;7400167;19;1852;-50
2023/05/03 09:03:46;;;;;;;;;;;;;;;20.12;60.72;101544.28;7401033;19;1822;-50
2023/05/03 09:06:21;;;;;;;;;;;;;;;20.14;60.42;101533.44;7401902;19;1073;-50
2023/05/03 09:08:52;;;;;;;;;;;;;;;20.14;60.50;101514.63;7400260;19;1939;-50
2023/05/03 09:11:24;;;;;;;;;;;;;;;20.07;60.74;101525.00;7400053;19;1520;-50
2023/05/03 09:13:53;;;;;;;;;;;;;;;20.01;60.94;101517.44;7401403;19;1614;-50
2023/05/03 09:16:26;;;;;;;;;;;;;;;20.03;60.91;101519.03;7402042;19;1333;-50
2023/05/03 09:19:01;;;;;;;;;;;;;;;20.03;60.94;101521.72;7402279;19;969;-50
2023/05/03 09:21:30;;;;;;;;;;;;;;;20.04;60.69;101522.56;7400624;19;1847;-51
2023/05/03 09:24:02;;;;;;;;;;;;;;;20.11;60.37;101518.41;7401684;19;1523;-50
2023/05/03 09:26:31;;;;;;;;;;;;;;;20.05;60.92;101516.22;7401686;19;1829;-51
2023/05/03 09:29:00;;;;;;;;;;;;;;;20.02;60.66;101516.47;7400815;19;1548;-50
2023/05/03 09:31:29;;;;;;;;;;;;;;;19.98;60.80;101518.56;7401753;19;1757;-50
2023/05/03 09:33:57;;;;;;;;;;;;;;;19.96;60.72;101512.44;7401054;19;1715;-50
2023/05/03 09:36:26;;;;;;;;;;;;;;;19.91;61.08;101509.28;7398220;19;1026;-50
2023/05/03 09:38:55;;;;;;;;;;;;;;;19.79;61.02;101521.84;7401134;19;1896;-50
2023/05/03 09:41:33;;;;;;;;;;;;;;;19.94;60.81;101513.56;7399591;19;1857;-51
2023/05/03 09:44:02;;;;;;;;;;;;;;;19.96;60.88;101517.81;7400672;19;1742;-50
2023/05/03 09:46:31;;;;;;;;;;;;;;;20.05;60.12;101516.22;7399298;19;1480;-50
2023/05/03 09:49:00;;;;;;;;;;;;;;;20.09;60.21;101520.34;7399240;19;1587;-50
2023/05/03 09:51:30;;;;;;;;;;;;;;;20.12;59.88;101525.50;7400570;19;1634;-50
2023/05/03 09:54:00;;;;;;;;;;;;;;;19.90;60.90;101523.69;7399833;19;1497;-50
2023/05/03 09:56:28;;;;;;;;;;;;;;;19.68;61.38;101519.16;7400270;19;1444;-50
2023/05/03 09:58:59;;;;;;;;;;;;;;;19.60;61.63;101526.94;7400148;19;1718;-51
2023/05/03 10:01:28;;;;;;;;;;;;;;;19.60;61.48;101503.66;7399635;19;1870;-51
2023/05/03 10:03:58;;;;;;;;;;;;;;;19.62;61.66;101515.13;7400120;19;1390;-51
2023/05/03 10:06:28;;;;;;;;;;;;;;;19.64;61.70;101506.94;7399425;19;1386;-49
2023/05/03 10:09:04;;;;;;;;;;;;;;;19.65;61.65;101497.91;7397564;19;1805;-50
2023/05/03 10:11:35;;;;;;;;;;;;;;;19.72;61.53;101501.84;7400465;19;1714;-50
2023/05/03 10:14:06;;;;;;;;;;;;;;;19.77;61.21;101513.06;7399577;19;1729;-50
2023/05/03 10:16:35;;;;;;;;;;;;;;;19.80;61.16;101502.09;7400709;19;1753;-50
2023/05/03 10:19:08;;;;;;;;;;;;;;;19.75;61.45;101480.13;7399206;19;1381;-50
2023/05/03 10:21:43;;;;;;;;;;;;;;;19.87;61.04;101470.25;7400348;19;1863;-49
2023/05/03 10:24:12;;;;;;;;;;;;;;;19.88;60.78;101476.47;7400033;19;1122;-50
2023/05/03 10:26:41;;;;;;;;;;;;;;;19.85;60.90;101464.97;7399303;19;1512;-50
2023/05/03 10:29:24;;;;;;;;;;;;;;;19.85;60.94;101493.66;7399428;19;1441;-50
2023/05/03 10:31:56;;;;;;;;;;;;;;;19.84;61.00;101483.91;7398795;19;1868;-50
2023/05/03 10:34:25;;;;;;;;;;;;;;;19.77;61.25;101480.00;7397071;19;1595;-50
2023/05/03 10:36:55;;;;;;;;;;;;;;;19.74;61.17;101486.50;7395597;19;1840;-50
2023/05/03 10:39:24;;;;;;;;;;;;;;;19.70;61.39;101458.16;7400363;19;1134;-50
2023/05/03 10:42:00;;;;;;;;;;;;;;;19.70;61.33;101468.91;7398093;19;1935;-50
2023/05/03 10:44:29;;;;;;;;;;;;;;;19.67;61.46;101450.34;7398608;19;1877;-50
2023/05/03 10:47:11;;;;;;;;;;;;;;;19.67;61.48;101453.03;7397904;19;1908;-50
2023/05/03 10:49:39;;;;;;;;;;;;;;;19.61;61.51;101453.53;7398103;19;1512;-50
2023/05/03 10:52:32;;;;;;;;;;;;;;;19.94;60.45;101459.88;7398781;19;1731;-49
2023/05/03 10:55:01;;;;;;;;;;;;;;;19.83;60.84;101458.88;7398099;19;1951;-50
2023/05/03 10:57:33;;;;;;;;;;;;;;;19.99;60.37;101449.59;7397318;19;1290;-50
2023/05/03 11:00:04;;;;;;;;;;;;;;;20.04;60.19;101455.47;7398198;19;1626;-50
2023/05/03 11:02:39;;;;;;;;;;;;;;;19.92;60.44;101453.78;7395659;19;1884;-50
2023/05/03 11:05:10;;;;;;;;;;;;;;;19.76;61.02;101432.69;7397052;19;1141;-50
2023/05/03 11:07:38;;;;;;;;;;;;;;;19.69;61.30;101424.25;7397579;19;1636;-50
2023/05/03 11:10:17;;;;;;;;;;;;;;;19.83;60.88;101426.69;7397185;19;1258;-50
2023/05/03 11:12:46;;;;;;;;;;;;;;;19.90;60.53;101436.94;7398385;19;1040;-51
2023/05/03 11:15:14;;;;;;;;;;;;;;;19.83;60.77;101429.38;7397860;19;1433;-50
2023/05/03 11:17:45;;;;;;;;;;;;;;;19.88;60.51;101425.47;7396536;19;1561;-51
2023/05/03 11:20:13;;;;;;;;;;;;;;;19.92;60.46;101410.84;7396948;19;1532;-50
2023/05/03 11:22:41;;;;;;;;;;;;;;;19.89;60.33;101432.53;7395782;19;1868;-50
2023/05/03 11:25:12;;;;;;;;;;;;;;;19.86;60.67;101414.88;7396819;19;1603;-50
2023/05/03 11:27:42;;;;;;;;;;;;;;;19.81;60.69;101419.75;7396767;19;1321;-50
2023/05/03 11:30:11;;;;;;;;;;;;;;;19.75;60.63;101429.13;7396822;19;1548;-50
2023/05/03 11:32:39;;;;;;;;;;;;;;;19.70;61.25;101425.97;7396275;19;1556;-50
2023/05/03 11:35:11;;;;;;;;;;;;;;;19.78;61.00;101431.59;7397048;19;1107;-50
2023/05/03 11:37:39;;;;;;;;;;;;;;;19.85;60.73;101414.00;7396415;19;1648;-50
2023/05/03 11:40:09;;;;;;;;;;;;;;;19.86;60.55;101410.34;7396531;19;1227;-50
2023/05/03 11:42:51;;;;;;;;;;;;;;;19.84;60.63;101409.63;7395147;19;1851;-50
2023/05/03 11:45:20;;;;;;;;;;;;;;;19.81;60.60;101406.31;7401948;19;1576;-50
2023/05/03 11:47:48;;;;;;;;;;;;;;;19.82;60.67;101419.63;7404341;19;1616;-50
2023/05/03 11:50:19;;;;;;;;;;;;;;;19.84;60.63;101403.41;7404470;19;1110;-50
2023/05/03 11:52:48;;;;;;;;;;;;;;;19.88;60.60;101395.97;7404420;19;1775;-50
2023/05/03 11:55:17;;;;;;;;;;;;;;;19.82;60.67;101395.47;7403816;19;1861;-50
2023/05/03 11:57:46;;;;;;;;;;;;;;;19.80;60.61;101388.53;7403031;19;1258;-50
2023/05/03 12:00:16;;;;;;;;;;;;;;;19.88;60.41;101399.50;7403698;19;1211;-50
2023/05/03 12:02:44;;;;;;;;;;;;;;;19.85;60.56;101403.25;7402963;19;1878;-50
2023/05/03 12:05:14;;;;;;;;;;;;;;;19.81;60.60;101391.06;7403716;19;1738;-50
2023/05/03 12:07:45;;;;;;;;;;;;;;;19.80;60.96;101388.53;7403151;19;1734;-50
2023/05/03 12:10:18;;;;;;;;;;;;;;;19.79;60.90;101376.91;7403683;19;1348;-50
2023/05/03 12:12:56;;;;;;;;;;;;;;;19.77;61.07;101389.63;7405046;19;984;-50
2023/05/03 12:15:31;;;;;;;;;;;;;;;19.72;61.13;101386.47;7403357;19;1940;-50
2023/05/03 12:18:00;;;;;;;;;;;;;;;19.61;61.21;101367.66;7404202;19;1742;-50
2023/05/03 12:20:30;;;;;;;;;;;;;;;19.54;61.60;101382.56;7403067;19;1766;-50
2023/05/03 12:23:02;;;;;;;;;;;;;;;19.54;61.55;101382.56;7401604;19;1863;-50
2023/05/03 12:25:31;;;;;;;;;;;;;;;19.69;61.08;101359.84;7402865;19;1786;-50
2023/05/03 12:28:01;;;;;;;;;;;;;;;19.66;61.18;101376.22;7402034;19;1796;-50
2023/05/03 12:30:30;;;;;;;;;;;;;;;19.72;60.81;101380.25;7401323;19;1389;-50
2023/05/03 12:32:58;;;;;;;;;;;;;;;19.84;60.86;101368.50;7402325;19;1195;-50
2023/05/03 12:35:27;;;;;;;;;;;;;;;19.85;60.70;101368.38;7403134;19;1254;-50
2023/05/03 12:37:55;;;;;;;;;;;;;;;19.90;60.36;101359.09;7402259;19;1231;-50
2023/05/03 12:40:27;;;;;;;;;;;;;;;19.88;60.36;101355.69;7399780;19;1047;-50
2023/05/03 12:42:55;;;;;;;;;;;;;;;19.92;60.45;101355.31;7397576;19;1863;-50
2023/05/03 12:45:23;;;;;;;;;;;;;;;19.87;60.30;101336.03;7400878;19;1592;-50
2023/05/03 12:47:52;;;;;;;;;;;;;;;19.96;60.27;101351.38;7396779;19;1649;-54
2023/05/03 12:50:20;;;;;;;;;;;;;;;19.90;60.56;101349.22;7399906;19;1342;-54
2023/05/03 12:52:48;;;;;;;;;;;;;;;19.81;60.98;101331.19;7401539;19;1258;-54
2023/05/03 12:55:17;;;;;;;;;;;;;;;19.79;61.19;101327.78;7400625;19;1294;-54
2023/05/03 12:57:48;;;;;;;;;;;;;;;19.77;61.19;101333.25;7401596;19;1557;-54
2023/05/03 13:00:19;;;;;;;;;;;;;;;19.86;61.13;101331.66;7402288;19;1329;-54